Time;durP1;ratioP1;P1;durP2;ratioP2;P2;SDS_P1;SDS_P2;PMS_P1;PMS_P2;Temp;Humidity;BMP_temperature;BMP_pressure;BME280_temperature;BME280_humidity;BME280_pressure;Samples;Min_cycle;Max_cycle;Signal;HPM_P1;HPM_P2
2023/08/20 00:02:01;;;;;;;10.13;3.60;;;;;17.70;101554.00;;;;10241119;28;20221;-77
2023/08/20 00:07:03;;;;;;;9.27;3.60;;;;;17.60;101554.00;;;;10257119;28;20231;-77
2023/08/20 00:12:05;;;;;;;10.60;3.75;;;;;17.50;101559.00;;;;10256458;28;20471;-76
2023/08/20 00:17:06;;;;;;;9.00;3.42;;;;;17.50;101564.00;;;;10223432;28;20781;-77
2023/08/20 00:22:08;;;;;;;9.00;3.28;;;;;17.50;101569.00;;;;10257661;28;21041;-78
2023/08/20 00:27:09;;;;;;;12.52;3.60;;;;;17.40;101568.00;;;;10258023;28;20227;-78
2023/08/20 00:32:10;;;;;;;11.48;3.40;;;;;17.40;101587.00;;;;10236739;28;20199;-77
2023/08/20 00:37:12;;;;;;;12.10;4.57;;;;;17.60;101591.00;;;;10238474;28;20204;-77
2023/08/20 00:42:14;;;;;;;14.45;4.40;;;;;17.80;101595.00;;;;10240972;28;20294;-77
2023/08/20 00:47:16;;;;;;;13.65;3.90;;;;;17.90;101587.00;;;;10219613;28;20253;-77
2023/08/20 00:52:17;;;;;;;11.90;3.90;;;;;18.10;101591.00;;;;10262397;28;21146;-77
2023/08/20 00:57:19;;;;;;;13.73;3.92;;;;;18.20;101576.00;;;;10230635;28;20353;-77
2023/08/20 01:02:20;;;;;;;11.45;3.50;;;;;18.20;101588.00;;;;10233752;28;20234;-79
2023/08/20 01:07:40;;;;;;;14.75;4.22;;;;;18.20;101599.00;;;;10261378;28;20578;-79
2023/08/20 01:12:43;;;;;;;10.88;3.35;;;;;18.30;101597.00;;;;10243123;28;20773;-78
2023/08/20 01:17:48;;;;;;;10.13;3.40;;;;;18.40;101598.00;;;;10281462;28;20243;-79
2023/08/20 01:22:58;;;;;;;13.77;4.13;;;;;18.50;101594.00;;;;10279505;28;20464;-81
2023/08/20 01:28:18;;;;;;;8.75;3.42;;;;;18.60;101594.00;;;;10275572;28;20230;-80
2023/08/20 01:33:19;;;;;;;11.73;3.75;;;;;18.60;101604.00;;;;10277653;28;21575;-80
2023/08/20 01:38:22;;;;;;;9.63;3.80;;;;;18.60;101606.00;;;;10264210;28;20214;-80
2023/08/20 01:43:23;;;;;;;9.90;3.03;;;;;18.70;101608.00;;;;10278396;28;20254;-79
2023/08/20 01:48:24;;;;;;;10.85;3.65;;;;;18.70;101614.00;;;;10263125;28;21648;-80
2023/08/20 01:53:26;;;;;;;15.20;3.42;;;;;18.70;101616.00;;;;10246537;28;20200;-80
2023/08/20 01:58:27;;;;;;;10.45;3.80;;;;;18.60;101629.00;;;;10276821;28;20214;-80
2023/08/20 02:03:29;;;;;;;12.00;3.40;;;;;18.50;101655.00;;;;10261745;28;20207;-80
2023/08/20 02:08:30;;;;;;;10.07;2.88;;;;;18.40;101664.00;;;;10259505;28;20531;-80
2023/08/20 02:13:32;;;;;;;8.85;3.72;;;;;18.40;101667.00;;;;10228823;28;20339;-80
2023/08/20 02:18:33;;;;;;;8.88;3.80;;;;;18.50;101670.00;;;;10260134;28;20211;-79
2023/08/20 02:23:35;;;;;;;7.68;3.58;;;;;18.50;101663.00;;;;10259721;28;20212;-81
2023/08/20 02:28:37;;;;;;;9.13;3.50;;;;;18.30;101638.00;;;;10260046;28;20235;-79
2023/08/20 02:33:38;;;;;;;9.40;3.00;;;;;18.10;101634.00;;;;10260581;28;20269;-80
2023/08/20 02:38:39;;;;;;;14.27;3.92;;;;;17.90;101626.00;;;;10257762;28;20894;-79
2023/08/20 02:43:41;;;;;;;11.65;3.35;;;;;17.70;101623.00;;;;10278451;28;20211;-80
2023/08/20 02:48:42;;;;;;;10.27;4.05;;;;;17.50;101628.00;;;;10243824;28;20234;-80
2023/08/20 02:53:43;;;;;;;9.00;3.83;;;;;17.30;101625.00;;;;10256973;28;20208;-79
2023/08/20 02:58:45;;;;;;;12.50;3.83;;;;;17.20;101634.00;;;;10241610;28;21366;-80
2023/08/20 03:03:47;;;;;;;16.60;3.45;;;;;17.10;101619.00;;;;10261421;28;20243;-80
2023/08/20 03:08:49;;;;;;;9.73;3.85;;;;;16.90;101615.00;;;;10257283;28;20827;-80
2023/08/20 03:13:50;;;;;;;12.68;4.78;;;;;16.80;101623.00;;;;10257425;28;20207;-80
2023/08/20 03:18:51;;;;;;;9.45;3.72;;;;;16.70;101618.00;;;;10255960;28;20223;-79
2023/08/20 03:23:53;;;;;;;9.95;4.00;;;;;16.60;101619.00;;;;10259513;28;20231;-80
2023/08/20 03:28:54;;;;;;;8.82;4.03;;;;;16.60;101619.00;;;;10257485;28;20223;-79
2023/08/20 03:33:56;;;;;;;11.45;3.85;;;;;16.50;101623.00;;;;10257343;28;20689;-79
2023/08/20 03:38:57;;;;;;;7.57;3.90;;;;;16.40;101617.00;;;;10257110;28;20207;-78
2023/08/20 03:43:59;;;;;;;14.60;4.30;;;;;16.30;101616.00;;;;10241343;28;20211;-79
2023/08/20 03:49:00;;;;;;;11.65;4.15;;;;;16.30;101626.00;;;;10254108;28;20310;-79
2023/08/20 03:54:02;;;;;;;11.90;4.82;;;;;16.30;101624.00;;;;10256549;28;20211;-79
2023/08/20 03:59:04;;;;;;;19.40;5.47;;;;;16.30;101613.00;;;;10256961;28;20213;-79
2023/08/20 04:04:05;;;;;;;13.90;4.70;;;;;16.40;101625.00;;;;10239625;28;20289;-78
2023/08/20 04:09:08;;;;;;;10.77;4.10;;;;;16.40;101617.00;;;;10255334;28;20905;-78
2023/08/20 04:14:10;;;;;;;11.25;4.80;;;;;16.30;101634.00;;;;10236889;28;20818;-79
2023/08/20 04:19:12;;;;;;;13.57;5.00;;;;;16.30;101640.00;;;;10256848;28;20821;-80
2023/08/20 04:24:14;;;;;;;9.27;4.97;;;;;16.30;101641.00;;;;10249548;28;20361;-79
2023/08/20 04:29:15;;;;;;;13.45;5.53;;;;;16.30;101637.00;;;;10264119;28;20223;-78
2023/08/20 04:34:17;;;;;;;12.57;4.70;;;;;16.30;101648.00;;;;10266543;28;20211;-79
2023/08/20 04:39:22;;;;;;;12.88;4.57;;;;;16.20;101650.00;;;;10266065;28;20238;-80
2023/08/20 04:44:26;;;;;;;13.95;4.80;;;;;16.10;101652.00;;;;10263779;28;20239;-79
2023/08/20 04:49:30;;;;;;;9.38;4.72;;;;;16.00;101648.00;;;;10264835;28;20223;-78
2023/08/20 04:54:31;;;;;;;11.80;4.38;;;;;16.10;101653.00;;;;10282650;28;20211;-79
2023/08/20 04:59:32;;;;;;;16.58;5.50;;;;;16.10;101654.00;;;;10248453;28;20204;-78
2023/08/20 05:04:36;;;;;;;11.35;4.60;;;;;16.10;101659.00;;;;10280174;28;20211;-79
2023/08/20 05:09:38;;;;;;;12.55;4.55;;;;;16.20;101665.00;;;;10261340;28;21041;-79
2023/08/20 05:14:41;;;;;;;11.57;5.00;;;;;16.20;101663.00;;;;10262160;28;21484;-78
2023/08/20 05:19:42;;;;;;;9.82;4.45;;;;;16.30;101670.00;;;;10263291;28;20242;-79
2023/08/20 05:24:44;;;;;;;11.43;4.53;;;;;16.40;101676.00;;;;10260471;28;21735;-78
2023/08/20 05:29:45;;;;;;;11.93;4.18;;;;;16.60;101664.00;;;;10284326;28;21902;-78
2023/08/20 05:34:47;;;;;;;13.70;5.68;;;;;16.80;101655.00;;;;10262992;28;20670;-79
2023/08/20 05:39:48;;;;;;;14.75;4.60;;;;;17.10;101664.00;;;;10255987;28;20226;-79
2023/08/20 05:44:51;;;;;;;14.13;5.15;;;;;17.30;101673.00;;;;10242810;28;20254;-78
2023/08/20 05:49:57;;;;;;;11.07;5.05;;;;;17.60;101663.00;;;;10259621;28;20231;-78
2023/08/20 05:54:58;;;;;;;18.77;5.38;;;;;18.00;101665.00;;;;10275480;28;20595;-79
2023/08/20 06:00:00;;;;;;;12.52;5.18;;;;;18.30;101666.00;;;;10261235;28;20208;-79
2023/08/20 06:05:07;;;;;;;13.55;5.50;;;;;18.80;101669.00;;;;10243262;28;20214;-79
2023/08/20 06:10:09;;;;;;;15.02;4.47;;;;;19.20;101686.00;;;;10261696;28;20636;-81
2023/08/20 06:15:10;;;;;;;14.60;4.63;;;;;19.80;101680.00;;;;10257968;28;20268;-79
2023/08/20 06:20:12;;;;;;;14.32;5.00;;;;;20.60;101680.00;;;;10276472;28;20682;-80
2023/08/20 06:25:13;;;;;;;12.15;3.55;;;;;21.30;101675.00;;;;10278503;28;21381;-80
2023/08/20 06:30:14;;;;;;;11.68;4.13;;;;;22.00;101663.00;;;;10255432;28;20203;-79
2023/08/20 06:35:15;;;;;;;9.60;2.95;;;;;22.60;101658.00;;;;10274992;28;20721;-79
2023/08/20 06:40:17;;;;;;;13.32;3.42;;;;;23.10;101662.00;;;;10240467;28;20746;-79
2023/08/20 06:45:18;;;;;;;6.47;2.72;;;;;23.40;101661.00;;;;10272037;28;20338;-80
2023/08/20 06:50:19;;;;;;;9.38;2.50;;;;;23.80;101667.00;;;;10255521;28;21591;-80
2023/08/20 06:55:21;;;;;;;9.02;2.75;;;;;24.10;101669.00;;;;10272859;28;20207;-80
2023/08/20 07:00:22;;;;;;;7.35;2.80;;;;;24.30;101669.00;;;;10271099;28;20211;-80
2023/08/20 07:05:24;;;;;;;9.52;2.95;;;;;24.20;101661.00;;;;10274075;28;20231;-80
2023/08/20 07:10:25;;;;;;;9.63;2.40;;;;;24.30;101677.00;;;;10238232;28;21532;-81
2023/08/20 07:15:27;;;;;;;7.22;2.03;;;;;24.30;101678.00;;;;10254359;28;20195;-81
2023/08/20 07:20:28;;;;;;;7.22;1.63;;;;;24.10;101689.00;;;;10252993;28;20425;-78
2023/08/20 07:25:29;;;;;;;6.47;1.52;;;;;24.10;101683.00;;;;10269782;28;20595;-81
2023/08/20 07:30:31;;;;;;;3.90;1.40;;;;;24.00;101688.00;;;;10269763;28;20605;-81
2023/08/20 07:35:33;;;;;;;6.85;1.75;;;;;24.10;101694.00;;;;10254920;28;20756;-80
2023/08/20 07:40:36;;;;;;;6.88;1.88;;;;;24.70;101693.00;;;;10250277;28;20451;-81
2023/08/20 07:45:37;;;;;;;7.85;1.88;;;;;25.40;101698.00;;;;10274888;28;20261;-81
2023/08/20 07:50:38;;;;;;;6.03;2.05;;;;;26.00;101703.00;;;;10252773;28;20223;-81
2023/08/20 07:55:40;;;;;;;6.00;1.75;;;;;26.60;101695.00;;;;10267784;28;20222;-80
2023/08/20 08:00:41;;;;;;;7.70;2.10;;;;;26.80;101710.00;;;;10234616;28;20825;-81
2023/08/20 08:05:49;;;;;;;4.53;1.70;;;;;27.10;101706.00;;;;10270806;28;20273;-83
2023/08/20 08:10:51;;;;;;;6.10;1.92;;;;;27.40;101702.00;;;;10250110;28;20624;-80
2023/08/20 08:15:52;;;;;;;7.15;2.00;;;;;27.80;101713.00;;;;10268102;28;20803;-79
2023/08/20 08:20:55;;;;;;;5.68;2.03;;;;;28.20;101709.00;;;;10265987;28;20253;-81
2023/08/20 08:25:57;;;;;;;4.03;1.45;;;;;28.50;101709.00;;;;10268867;28;20216;-81
2023/08/20 08:30:58;;;;;;;4.28;1.70;;;;;28.90;101720.00;;;;10237818;28;20548;-81
2023/08/20 08:35:59;;;;;;;5.38;1.42;;;;;29.00;101711.00;;;;10251888;28;20306;-81
2023/08/20 08:41:03;;;;;;;4.40;1.23;;;;;29.30;101717.00;;;;10249365;28;20695;-80
2023/08/20 08:46:07;;;;;;;4.78;1.42;;;;;29.70;101713.00;;;;10253164;28;20227;-80
2023/08/20 08:51:09;;;;;;;6.10;1.40;;;;;29.80;101714.00;;;;10268282;28;20211;-81
2023/08/20 08:56:10;;;;;;;4.63;1.45;;;;;29.30;101711.00;;;;10266728;28;20452;-82
2023/08/20 09:01:13;;;;;;;4.43;1.10;;;;;29.60;101712.00;;;;10268981;28;20570;-81
2023/08/20 09:06:14;;;;;;;4.03;1.25;;;;;29.80;101716.00;;;;10266653;28;20227;-81
2023/08/20 09:11:15;;;;;;;5.32;1.45;;;;;30.10;101711.00;;;;10257700;28;20207;-81
2023/08/20 09:16:17;;;;;;;3.45;1.40;;;;;30.10;101720.00;;;;10274087;28;20617;-81
2023/08/20 09:21:18;;;;;;;3.55;1.00;;;;;30.30;101718.00;;;;10275531;28;20200;-81
2023/08/20 09:26:19;;;;;;;2.30;1.25;;;;;30.60;101725.00;;;;10275180;28;20377;-81
2023/08/20 09:31:37;;;;;;;1.83;0.98;;;;;30.80;101721.00;;;;10275763;28;20377;-81
2023/08/20 09:36:38;;;;;;;3.90;0.95;;;;;31.10;101725.00;;;;10274446;28;20680;-81
2023/08/20 09:41:40;;;;;;;2.47;0.85;;;;;31.40;101725.00;;;;10275766;28;20487;-81
2023/08/20 09:46:43;;;;;;;3.28;0.80;;;;;31.60;101731.00;;;;10275674;28;20277;-81
2023/08/20 09:51:50;;;;;;;1.75;0.90;;;;;31.70;101727.00;;;;10272475;28;20960;-81
2023/08/20 09:56:55;;;;;;;3.38;1.00;;;;;31.60;101728.00;;;;10255965;28;20337;-82
2023/08/20 10:01:57;;;;;;;2.40;0.80;;;;;31.90;101731.00;;;;10255256;28;20212;-82
2023/08/20 10:06:59;;;;;;;2.15;0.68;;;;;31.90;101738.00;;;;10270208;28;21926;-81
2023/08/20 10:12:01;;;;;;;1.73;0.73;;;;;31.80;101733.00;;;;10273485;28;20207;-81
2023/08/20 10:17:09;;;;;;;1.77;0.65;;;;;31.20;101738.00;;;;10275178;28;20586;-81
2023/08/20 10:22:11;;;;;;;1.92;0.68;;;;;31.70;101730.00;;;;10254142;28;20241;-81
2023/08/20 10:27:13;;;;;;;2.90;0.80;;;;;31.70;101731.00;;;;10256388;28;20576;-82
2023/08/20 10:32:14;;;;;;;2.22;0.77;;;;;32.10;101734.00;;;;10270927;28;20246;-82
2023/08/20 10:37:15;;;;;;;3.78;1.10;;;;;32.40;101719.00;;;;10270893;28;20243;-82
2023/08/20 10:42:19;;;;;;;2.47;0.90;;;;;32.70;101713.00;;;;10264001;28;20219;-81
2023/08/20 10:47:22;;;;;;;1.75;0.82;;;;;32.90;101711.00;;;;10252704;28;20231;-81
2023/08/20 10:52:23;;;;;;;3.45;0.93;;;;;33.10;101703.00;;;;10254457;28;20204;-82
2023/08/20 10:57:33;;;;;;;2.60;0.90;;;;;33.10;101696.00;;;;10270616;28;20911;-82
2023/08/20 11:02:36;;;;;;;3.35;0.80;;;;;33.10;101701.00;;;;10254100;28;21397;-81
2023/08/20 11:07:39;;;;;;;2.15;0.93;;;;;33.70;101692.00;;;;10271524;28;20397;-81
2023/08/20 11:12:41;;;;;;;2.83;1.10;;;;;34.10;101684.00;;;;10270887;28;20573;-81
2023/08/20 11:17:45;;;;;;;4.85;1.35;;;;;34.20;101677.00;;;;10253831;28;20207;-80
2023/08/20 11:22:47;;;;;;;4.78;2.42;;;;;34.10;101673.00;;;;10270375;28;21273;-82
2023/08/20 11:27:50;;;;;;;6.20;2.20;;;;;34.00;101668.00;;;;10268720;28;20223;-81
2023/08/20 11:32:52;;;;;;;6.43;2.00;;;;;34.10;101679.00;;;;10252176;28;20247;-81
2023/08/20 11:37:55;;;;;;;6.25;1.70;;;;;34.50;101671.00;;;;10272232;28;20207;-81
2023/08/20 11:42:57;;;;;;;7.28;1.85;;;;;34.30;101664.00;;;;10251613;28;20208;-81
2023/08/20 11:47:59;;;;;;;4.30;1.20;;;;;34.30;101663.00;;;;10268479;28;20226;-81
2023/08/20 11:53:01;;;;;;;3.45;1.60;;;;;34.00;101668.00;;;;10271750;28;20388;-81
2023/08/20 11:58:02;;;;;;;3.60;1.27;;;;;33.70;101666.00;;;;10267840;28;20207;-81
2023/08/20 12:03:05;;;;;;;3.47;1.42;;;;;33.80;101667.00;;;;10270057;28;20211;-81
2023/08/20 12:08:06;;;;;;;2.70;1.23;;;;;34.00;101657.00;;;;10269964;28;20258;-81
2023/08/20 12:13:08;;;;;;;5.63;1.40;;;;;34.30;101657.00;;;;10272345;28;20303;-81
2023/08/20 12:18:10;;;;;;;5.22;1.33;;;;;34.30;101649.00;;;;10269122;28;20243;-81
2023/08/20 12:23:12;;;;;;;5.20;1.40;;;;;34.30;101643.00;;;;10267942;28;21028;-80
2023/08/20 12:28:13;;;;;;;4.78;1.48;;;;;34.50;101639.00;;;;10265552;28;20227;-81
2023/08/20 12:33:15;;;;;;;2.75;1.27;;;;;34.40;101653.00;;;;10268832;28;20207;-80
2023/08/20 12:38:16;;;;;;;3.33;1.30;;;;;34.20;101648.00;;;;10266923;28;20207;-81
2023/08/20 12:43:17;;;;;;;3.17;1.20;;;;;34.20;101637.00;;;;10266595;28;20244;-80
2023/08/20 12:48:18;;;;;;;4.65;1.50;;;;;34.30;101635.00;;;;10246209;28;21925;-79
2023/08/20 12:53:20;;;;;;;3.55;1.23;;;;;34.10;101647.00;;;;10248129;28;20203;-77
2023/08/20 12:58:22;;;;;;;2.90;1.23;;;;;33.70;101632.00;;;;10249021;28;20207;-77
2023/08/20 13:03:24;;;;;;;4.45;1.40;;;;;32.60;101635.00;;;;10246914;28;20602;-80
2023/08/20 13:08:26;;;;;;;3.42;1.40;;;;;33.00;101645.00;;;;10265603;28;20219;-80
2023/08/20 13:13:28;;;;;;;4.78;1.50;;;;;33.30;101635.00;;;;10247997;28;20559;-80
2023/08/20 13:18:29;;;;;;;4.03;1.50;;;;;32.20;101641.00;;;;10265962;28;20246;-80
2023/08/20 13:23:31;;;;;;;3.80;1.52;;;;;32.70;101636.00;;;;10264250;28;20199;-80
2023/08/20 13:28:32;;;;;;;3.42;1.23;;;;;31.70;101644.00;;;;10264812;28;20216;-80
2023/08/20 13:33:34;;;;;;;6.03;1.67;;;;;31.00;101641.00;;;;10259582;28;20600;-79
2023/08/20 13:38:35;;;;;;;6.28;1.55;;;;;31.10;101636.00;;;;10264144;28;20219;-79
2023/08/20 13:43:36;;;;;;;5.65;1.77;;;;;30.30;101642.00;;;;10264231;28;20336;-78
2023/08/20 13:48:37;;;;;;;3.75;1.58;;;;;30.40;101634.00;;;;10265984;28;20725;-80
2023/08/20 13:53:39;;;;;;;4.32;1.40;;;;;30.30;101643.00;;;;10257273;28;20219;-80
2023/08/20 13:58:40;;;;;;;5.78;1.92;;;;;30.70;101626.00;;;;10272987;28;20221;-81
2023/08/20 14:03:41;;;;;;;4.15;1.55;;;;;31.80;101623.00;;;;10238123;28;20328;-78
2023/08/20 14:08:43;;;;;;;3.83;1.73;;;;;32.10;101624.00;;;;10247775;28;20640;-78
2023/08/20 14:13:44;;;;;;;4.90;1.75;;;;;31.50;101617.00;;;;10263192;28;20330;-78
2023/08/20 14:18:46;;;;;;;5.53;2.40;;;;;31.00;101607.00;;;;10267725;28;20218;-81
2023/08/20 14:23:47;;;;;;;8.45;2.08;;;;;31.40;101605.00;;;;10272732;28;20215;-80
2023/08/20 14:28:48;;;;;;;7.03;1.98;;;;;32.50;101585.00;;;;10250629;28;20223;-79
2023/08/20 14:33:50;;;;;;;3.85;1.73;;;;;33.30;101597.00;;;;10260694;28;21052;-79
2023/08/20 14:38:51;;;;;;;3.83;1.40;;;;;32.70;101604.00;;;;10261138;28;20237;-77
2023/08/20 14:43:52;;;;;;;5.03;1.45;;;;;31.40;101603.00;;;;10265727;28;20937;-77
2023/08/20 14:48:55;;;;;;;4.25;1.58;;;;;31.00;101602.00;;;;10262842;28;20264;-79
2023/08/20 14:53:56;;;;;;;4.53;1.50;;;;;30.40;101600.00;;;;10258856;28;20207;-80
2023/08/20 14:58:57;;;;;;;4.57;1.50;;;;;29.30;101603.00;;;;10263016;28;20210;-80
2023/08/20 15:03:59;;;;;;;2.63;1.27;;;;;29.60;101592.00;;;;10264896;28;20207;-77
2023/08/20 15:09:00;;;;;;;5.57;1.60;;;;;30.10;101592.00;;;;10267256;28;21557;-77
2023/08/20 15:14:02;;;;;;;5.50;1.67;;;;;29.80;101589.00;;;;10230798;28;20535;-77
2023/08/20 15:19:03;;;;;;;2.88;1.30;;;;;29.60;101590.00;;;;10271354;28;20917;-80
2023/08/20 15:24:04;;;;;;;8.95;1.95;;;;;29.40;101591.00;;;;10254363;28;20203;-81
2023/08/20 15:29:06;;;;;;;3.60;1.52;;;;;29.10;101592.00;;;;10248461;28;20233;-79
2023/08/20 15:34:07;;;;;;;5.57;1.77;;;;;29.00;101586.00;;;;10261219;28;20612;-80
2023/08/20 15:39:08;;;;;;;3.42;1.30;;;;;28.60;101579.00;;;;10258836;28;20352;-77
2023/08/20 15:44:10;;;;;;;2.08;1.10;;;;;28.60;101587.00;;;;10253911;28;20215;-77
2023/08/20 15:49:11;;;;;;;5.85;1.50;;;;;28.60;101589.00;;;;10262954;28;20246;-80
2023/08/20 15:54:12;;;;;;;3.10;1.48;;;;;28.90;101587.00;;;;10256383;28;20817;-81
2023/08/20 15:59:14;;;;;;;5.18;1.30;;;;;28.70;101579.00;;;;10268431;28;20199;-77
2023/08/20 16:04:15;;;;;;;2.55;1.48;;;;;28.50;101581.00;;;;10259633;28;20204;-79
2023/08/20 16:09:17;;;;;;;3.88;1.20;;;;;28.20;101568.00;;;;10261277;28;20417;-80
2023/08/20 16:14:24;;;;;;;5.35;1.42;;;;;28.10;101569.00;;;;10242812;28;20209;-79
2023/08/20 16:19:26;;;;;;;2.55;1.20;;;;;28.00;101568.00;;;;10257998;28;20653;-78
2023/08/20 16:24:28;;;;;;;3.58;1.30;;;;;27.90;101573.00;;;;10254841;28;20246;-76
2023/08/20 16:29:30;;;;;;;3.85;1.35;;;;;28.00;101574.00;;;;10238218;28;20223;-79
2023/08/20 16:34:31;;;;;;;5.68;1.50;;;;;28.20;101572.00;;;;10261319;28;20734;-78
2023/08/20 16:39:32;;;;;;;3.30;1.15;;;;;28.10;101572.00;;;;10258817;28;20487;-77
2023/08/20 16:44:36;;;;;;;2.88;1.23;;;;;28.00;101573.00;;;;10236622;28;20210;-77
2023/08/20 16:49:40;;;;;;;4.50;1.38;;;;;28.00;101571.00;;;;10261186;28;20227;-76
2023/08/20 16:54:48;;;;;;;2.75;1.40;;;;;27.80;101573.00;;;;10257830;28;20221;-77
2023/08/20 16:59:49;;;;;;;2.80;1.00;;;;;27.50;101577.00;;;;10236614;28;21909;-77
2023/08/20 17:04:51;;;;;;;2.42;1.05;;;;;27.40;101576.00;;;;10254297;28;20456;-76
2023/08/20 17:09:52;;;;;;;4.22;1.40;;;;;27.40;101584.00;;;;10262574;28;20254;-76
2023/08/20 17:14:54;;;;;;;8.40;1.55;;;;;27.20;101588.00;;;;10250545;28;20812;-81
2023/08/20 17:19:56;;;;;;;6.18;1.52;;;;;26.90;101586.00;;;;10250744;28;20269;-80
2023/08/20 17:24:57;;;;;;;5.57;1.65;;;;;26.60;101582.00;;;;10268447;28;20589;-80
2023/08/20 17:30:00;;;;;;;2.92;1.40;;;;;26.30;101592.00;;;;10261964;28;20254;-78
2023/08/20 17:35:02;;;;;;;7.60;1.40;;;;;26.10;101591.00;;;;10230034;28;20203;-78
2023/08/20 17:40:09;;;;;;;6.70;1.40;;;;;25.90;101603.00;;;;10245306;28;20253;-78
2023/08/20 17:45:10;;;;;;;3.72;1.25;;;;;25.80;101608.00;;;;10262143;28;20211;-77
2023/08/20 17:50:11;;;;;;;10.25;1.42;;;;;25.60;101604.00;;;;10243709;28;20397;-77
2023/08/20 17:55:13;;;;;;;6.38;1.55;;;;;25.40;101602.00;;;;10266268;28;20268;-80
2023/08/20 18:00:14;;;;;;;4.93;1.50;;;;;25.30;101623.00;;;;10272851;28;20215;-80
2023/08/20 18:05:16;;;;;;;4.65;1.52;;;;;25.20;101619.00;;;;10268186;28;20681;-76
2023/08/20 18:10:17;;;;;;;4.40;1.67;;;;;25.10;101629.00;;;;10262891;28;20215;-77
2023/08/20 18:15:18;;;;;;;5.35;1.35;;;;;25.00;101629.00;;;;10247605;28;20215;-80
2023/08/20 18:20:20;;;;;;;6.25;2.22;;;;;24.90;101625.00;;;;10261983;28;20527;-78
2023/08/20 18:25:22;;;;;;;10.52;2.22;;;;;24.70;101628.00;;;;10242679;28;20644;-78
2023/08/20 18:30:23;;;;;;;2.38;1.50;;;;;24.50;101638.00;;;;10262460;28;20251;-78
2023/08/20 18:35:25;;;;;;;3.53;1.60;;;;;24.30;101640.00;;;;10241494;28;20207;-76
2023/08/20 18:40:26;;;;;;;5.97;1.88;;;;;24.00;101651.00;;;;10270713;28;20265;-79
2023/08/20 18:45:27;;;;;;;4.97;1.40;;;;;23.90;101650.00;;;;10264903;28;20261;-77
2023/08/20 18:50:29;;;;;;;5.10;1.75;;;;;23.70;101650.00;;;;10215110;28;20759;-79
2023/08/20 18:55:30;;;;;;;6.15;1.77;;;;;23.50;101661.00;;;;10262683;28;20565;-77
2023/08/20 19:00:31;;;;;;;8.63;2.05;;;;;23.40;101675.00;;;;10248298;28;21670;-75
2023/08/20 19:05:33;;;;;;;6.65;1.77;;;;;23.20;101684.00;;;;10274906;28;20223;-80
2023/08/20 19:10:34;;;;;;;5.95;2.20;;;;;23.10;101686.00;;;;10255111;28;20203;-80
2023/08/20 19:15:49;;;;;;;5.18;1.80;;;;;23.00;101698.00;;;;10265640;28;20207;-76
2023/08/20 19:20:52;;;;;;;7.35;1.92;;;;;22.90;101702.00;;;;10243119;28;20257;-75
2023/08/20 19:25:54;;;;;;;6.47;1.80;;;;;22.70;101710.00;;;;10262122;28;21475;-76
2023/08/20 19:30:55;;;;;;;6.95;2.38;;;;;22.60;101712.00;;;;10239387;28;20690;-76
2023/08/20 19:35:57;;;;;;;7.10;2.08;;;;;22.50;101720.00;;;;10259755;28;20203;-78
2023/08/20 19:40:58;;;;;;;4.93;1.50;;;;;22.40;101733.00;;;;10261723;28;21129;-78
2023/08/20 19:45:59;;;;;;;5.47;2.03;;;;;22.30;101732.00;;;;10256108;28;20262;-76
2023/08/20 19:51:01;;;;;;;5.90;1.85;;;;;22.20;101743.00;;;;10238862;28;20318;-77
2023/08/20 19:56:03;;;;;;;5.45;1.52;;;;;22.10;101739.00;;;;10258531;28;20208;-77
2023/08/20 20:01:05;;;;;;;7.47;1.77;;;;;22.00;101744.00;;;;10255861;28;20446;-80
2023/08/20 20:06:06;;;;;;;4.35;1.50;;;;;22.00;101745.00;;;;10243835;28;20297;-79
2023/08/20 20:11:08;;;;;;;7.43;1.63;;;;;21.90;101741.00;;;;10258374;28;21274;-77
2023/08/20 20:16:09;;;;;;;8.98;1.70;;;;;21.80;101747.00;;;;10238628;28;20346;-77
2023/08/20 20:21:11;;;;;;;5.53;1.90;;;;;21.70;101746.00;;;;10258925;28;20204;-77
2023/08/20 20:26:12;;;;;;;5.63;1.65;;;;;21.60;101748.00;;;;10258803;28;20563;-78
2023/08/20 20:31:13;;;;;;;5.80;1.40;;;;;21.60;101752.00;;;;10260089;28;20207;-78
2023/08/20 20:36:15;;;;;;;8.05;1.65;;;;;21.60;101755.00;;;;10241378;28;20204;-76
2023/08/20 20:41:16;;;;;;;8.00;2.15;;;;;21.60;101758.00;;;;10255081;28;20255;-77
2023/08/20 20:46:18;;;;;;;6.30;2.00;;;;;21.60;101756.00;;;;10241536;28;20338;-77
2023/08/20 20:51:20;;;;;;;4.88;1.30;;;;;21.50;101771.00;;;;10223920;28;20207;-78
2023/08/20 20:56:22;;;;;;;4.68;1.40;;;;;21.50;101773.00;;;;10239462;28;20235;-77
2023/08/20 21:01:24;;;;;;;6.25;1.55;;;;;21.50;101777.00;;;;10218982;28;20222;-77
2023/08/20 21:06:25;;;;;;;5.47;1.40;;;;;21.50;101791.00;;;;10260359;28;20215;-76
2023/08/20 21:11:26;;;;;;;5.13;1.33;;;;;21.50;101786.00;;;;10247374;28;20669;-78
2023/08/20 21:16:28;;;;;;;3.13;1.33;;;;;21.40;101795.00;;;;10244018;28;20298;-75
2023/08/20 21:21:29;;;;;;;5.03;1.35;;;;;21.30;101795.00;;;;10263755;28;20238;-78
2023/08/20 21:26:30;;;;;;;6.35;1.58;;;;;21.30;101784.00;;;;10264313;28;20259;-78
2023/08/20 21:31:31;;;;;;;6.20;1.55;;;;;21.30;101782.00;;;;10266950;28;20257;-76
2023/08/20 21:36:33;;;;;;;6.30;1.67;;;;;21.30;101799.00;;;;10263150;28;20821;-78
2023/08/20 21:41:34;;;;;;;8.45;1.90;;;;;21.30;101796.00;;;;10266706;28;21257;-76
2023/08/20 21:46:35;;;;;;;8.02;1.63;;;;;21.20;101791.00;;;;10263800;28;20833;-75
2023/08/20 21:51:37;;;;;;;2.75;1.60;;;;;21.00;101807.00;;;;10265706;28;20358;-77
2023/08/20 21:56:38;;;;;;;2.45;1.33;;;;;20.90;101810.00;;;;10247100;28;22081;-75
2023/08/20 22:01:39;;;;;;;7.25;1.88;;;;;20.90;101798.00;;;;10262935;28;20239;-81
2023/08/20 22:06:40;;;;;;;7.15;1.88;;;;;20.80;101783.00;;;;10250350;28;20219;-80
2023/08/20 22:11:42;;;;;;;5.20;1.88;;;;;20.70;101793.00;;;;10266181;28;20207;-77
2023/08/20 22:16:43;;;;;;;6.88;2.10;;;;;20.60;101804.00;;;;10262220;28;20222;-77
2023/08/20 22:22:01;;;;;;;3.65;1.60;;;;;20.60;101817.00;;;;10230627;28;20671;-77
2023/08/20 22:27:03;;;;;;;10.20;2.13;;;;;20.60;101819.00;;;;10224289;28;21518;-77
2023/08/20 22:32:05;;;;;;;5.40;1.73;;;;;20.60;101808.00;;;;10226189;28;20214;-77
2023/08/20 22:37:06;;;;;;;5.15;1.70;;;;;20.60;101818.00;;;;10262819;28;20294;-78
2023/08/20 22:42:08;;;;;;;3.92;2.03;;;;;20.60;101825.00;;;;10262758;28;20543;-76
2023/08/20 22:47:10;;;;;;;7.88;2.20;;;;;20.60;101823.00;;;;10245884;28;20231;-77
2023/08/20 22:52:11;;;;;;;6.30;1.70;;;;;20.50;101813.00;;;;10244944;28;20210;-78
2023/08/20 22:57:12;;;;;;;8.50;1.77;;;;;20.30;101804.00;;;;10246248;28;20196;-79
2023/08/20 23:02:14;;;;;;;7.80;1.85;;;;;20.20;101811.00;;;;10274598;28;20257;-80
2023/08/20 23:07:15;;;;;;;8.70;1.95;;;;;20.10;101811.00;;;;10254255;28;20359;-77
2023/08/20 23:12:17;;;;;;;4.10;1.70;;;;;20.00;101811.00;;;;10242288;28;20673;-77
2023/08/20 23:17:19;;;;;;;9.52;2.05;;;;;19.80;101794.00;;;;10243688;28;21020;-80
2023/08/20 23:22:20;;;;;;;8.02;2.00;;;;;19.70;101791.00;;;;10264925;28;20910;-80
2023/08/20 23:27:21;;;;;;;4.47;1.70;;;;;19.60;101792.00;;;;10247292;28;21389;-76
2023/08/20 23:32:23;;;;;;;6.07;1.60;;;;;19.50;101794.00;;;;10260488;28;20238;-77
2023/08/20 23:37:24;;;;;;;5.22;1.70;;;;;19.50;101790.00;;;;10259960;28;20214;-77
2023/08/20 23:42:25;;;;;;;7.18;2.08;;;;;19.30;101782.00;;;;10258940;28;20203;-78
2023/08/20 23:47:26;;;;;;;4.97;2.15;;;;;19.20;101780.00;;;;10259920;28;20251;-78
2023/08/20 23:52:28;;;;;;;5.22;1.88;;;;;19.00;101777.00;;;;10263418;28;20215;-78
2023/08/20 23:57:29;;;;;;;5.72;2.25;;;;;18.90;101779.00;;;;10261373;28;20203;-79
